Time,TemperatureF,DewpointF,PressureIn,WindDirection,WindDirectionDegrees,WindSpeedMPH,WindSpeedGustMPH,Humidity,HourlyPrecipIn,Conditions,Clouds,dailyrainin,SoftwareType,DateUTC
2013-07-03 00:11:00,57.0,57.0,30.14,NNE,13,2.0,5.0,100,0.00,,,-99.99,,2013-07-03 04:11:00,
2013-07-03 00:22:00,57.0,57.0,30.14,NNE,13,0.0,0.0,100,0.00,,,-99.99,,2013-07-03 04:22:00,
2013-07-03 00:34:00,57.0,57.0,30.13,NNE,13,3.0,6.0,100,0.00,,,-99.99,,2013-07-03 04:34:00,
2013-07-03 00:43:00,57.0,57.0,30.13,NNE,13,3.0,6.0,100,0.00,,,-99.99,,2013-07-03 04:43:00,
2013-07-03 00:52:00,57.0,57.0,30.13,NNE,13,2.0,6.0,100,0.00,,,-99.99,,2013-07-03 04:52:00,
2013-07-03 01:02:00,57.0,57.0,30.13,NNE,13,2.0,6.0,100,0.00,,,-99.99,,2013-07-03 05:02:00,
2013-07-03 01:11:00,57.0,57.0,30.14,NNE,13,0.0,3.0,100,0.00,,,-99.99,,2013-07-03 05:11:00,
2013-07-03 01:39:00,57.0,57.0,30.13,NNE,13,0.0,0.0,100,0.00,,,-99.99,,2013-07-03 05:39:00,
2013-07-03 01:48:00,57.0,57.0,30.13,NNE,13,0.0,0.0,100,0.00,,,-99.99,,2013-07-03 05:48:00,
2013-07-03 02:01:00,57.0,57.0,30.12,NNE,13,0.0,0.0,100,0.00,,,-99.99,,2013-07-03 06:01:00,
2013-07-03 02:08:00,57.0,57.0,30.12,NNE,13,0.0,4.0,100,0.00,,,-99.99,,2013-07-03 06:08:00,
2013-07-03 02:15:00,57.0,57.0,30.12,NNE,13,0.0,4.0,100,0.00,,,-99.99,,2013-07-03 06:15:00,
2013-07-03 02:26:00,57.0,57.0,30.12,NNE,13,2.0,6.0,100,0.00,,,-99.99,,2013-07-03 06:26:00,
2013-07-03 02:39:00,57.0,57.0,30.12,NNE,13,3.0,6.0,100,0.00,,,-99.99,,2013-07-03 06:39:00,
2013-07-03 02:50:00,57.0,57.0,30.12,NNE,13,3.0,6.0,100,0.00,,,-99.99,,2013-07-03 06:50:00,
2013-07-03 02:58:00,57.0,57.0,30.11,NNE,13,0.0,3.0,100,0.00,,,-99.99,,2013-07-03 06:58:00,
2013-07-03 03:07:00,57.0,57.0,30.11,NNE,13,0.0,0.0,100,0.00,,,-99.99,,2013-07-03 07:07:00,
2013-07-03 03:38:00,57.0,57.0,30.11,NNE,13,0.0,0.0,100,0.00,,,-99.99,,2013-07-03 07:38:00,
2013-07-03 03:47:00,57.0,57.0,30.11,NNE,13,0.0,0.0,100,0.00,,,-99.99,,2013-07-03 07:47:00,
2013-07-03 04:10:00,58.0,58.0,30.12,NNE,13,4.0,5.0,100,0.00,,,-99.99,,2013-07-03 08:10:00,
2013-07-03 04:16:00,58.0,58.0,30.12,NNE,13,4.0,5.0,100,0.00,,,-99.99,,2013-07-03 08:16:00,
2013-07-03 04:38:00,58.0,58.0,30.12,NNE,13,2.0,6.0,100,0.00,,,-99.99,,2013-07-03 08:38:00,
2013-07-03 04:45:00,58.0,58.0,30.12,NNE,13,1.0,3.0,100,0.00,,,-99.99,,2013-07-03 08:45:00,
2013-07-03 05:07:00,58.0,58.0,30.12,NNE,13,3.0,3.0,100,0.00,,,-99.99,,2013-07-03 09:07:00,
2013-07-03 05:16:00,58.0,58.0,30.11,NNE,13,0.0,4.0,100,0.00,,,-99.99,,2013-07-03 09:16:00,
2013-07-03 05:47:00,58.0,58.0,30.12,NNE,13,0.0,0.0,100,0.00,,,-99.99,,2013-07-03 09:47:00,
2013-07-03 06:17:00,58.0,58.0,30.12,NNE,13,0.0,0.0,100,-99.99,,,-99.99,,2013-07-03 10:17:00,
2013-07-03 06:28:00,58.0,58.0,30.13,NNE,13,0.0,2.0,100,-99.99,,,-99.99,,2013-07-03 10:28:00,
2013-07-03 06:36:00,58.0,58.0,30.13,NNE,13,0.0,2.0,100,-99.99,,,-99.99,,2013-07-03 10:36:00,
2013-07-03 06:45:00,58.0,58.0,30.14,NNE,13,0.0,2.0,100,-99.99,,,-99.99,,2013-07-03 10:45:00,
2013-07-03 07:16:00,56.0,56.0,30.14,NNE,13,3.0,5.0,100,0.00,,,-99.99,,2013-07-03 11:16:00,
2013-07-03 07:38:00,56.0,56.0,30.14,NNE,13,2.0,6.0,100,0.00,,,-99.99,,2013-07-03 11:38:00,
2013-07-03 07:43:00,56.0,56.0,30.14,NNW,330,4.0,7.0,100,0.01,,,-99.99,,2013-07-03 11:43:00,
2013-07-03 08:08:00,56.0,56.0,30.14,WSW,250,2.0,6.0,100,0.01,,,-99.99,,2013-07-03 12:08:00,
2013-07-03 08:16:00,56.0,56.0,30.14,WSW,250,2.0,6.0,100,0.01,,,-99.99,,2013-07-03 12:16:00,
2013-07-03 08:37:00,57.0,57.0,30.14,WSW,250,1.0,6.0,100,0.00,,,-99.99,,2013-07-03 12:37:00,
2013-07-03 08:45:00,57.0,57.0,30.14,WSW,250,1.0,6.0,100,0.00,,,-99.99,,2013-07-03 12:45:00,
2013-07-03 08:59:00,57.0,57.0,30.14,WSW,250,1.0,4.0,100,0.00,,,-99.99,,2013-07-03 12:59:00,
2013-07-03 09:08:00,57.0,57.0,30.14,WSW,250,1.0,4.0,100,0.00,,,-99.99,,2013-07-03 13:08:00,
2013-07-03 09:17:00,58.0,58.0,30.14,WSW,249,0.0,3.0,100,0.00,,,-99.99,,2013-07-03 13:17:00,
2013-07-03 09:36:00,59.0,59.0,30.14,WSW,249,0.0,0.0,100,0.00,,,-99.99,,2013-07-03 13:36:00,
2013-07-03 09:47:00,60.0,60.0,30.14,WSW,250,0.0,3.0,100,0.00,,,-99.99,,2013-07-03 13:47:00,
2013-07-03 10:07:00,59.0,59.0,30.14,WSW,250,2.0,5.0,100,0.00,,,-99.99,,2013-07-03 14:07:00,
2013-07-03 10:15:00,58.0,58.0,30.14,WSW,250,1.0,5.0,100,0.00,,,-99.99,,2013-07-03 14:15:00,
2013-07-03 10:38:00,58.0,58.0,30.15,SW,229,6.0,9.0,100,0.00,,,-99.99,,2013-07-03 14:38:00,
2013-07-03 10:47:00,58.0,58.0,30.14,SW,223,3.0,8.0,100,0.00,,,-99.99,,2013-07-03 14:47:00,
2013-07-03 10:55:00,58.0,58.0,30.14,SSW,213,1.0,10.0,100,0.00,,,-99.99,,2013-07-03 14:55:00,
2013-07-03 11:06:00,58.0,58.0,30.14,SSW,213,1.0,10.0,100,0.00,,,-99.99,,2013-07-03 15:06:00,
2013-07-03 11:15:00,58.0,58.0,30.14,SW,218,8.0,10.0,100,0.00,,,-99.99,,2013-07-03 15:15:00,
2013-07-03 11:26:00,58.0,58.0,30.14,SW,216,2.0,11.0,100,0.00,,,-99.99,,2013-07-03 15:26:00,
2013-07-03 11:47:00,58.0,58.0,30.14,SW,223,5.0,12.0,100,0.00,,,-99.99,,2013-07-03 15:47:00,
2013-07-03 11:57:00,58.0,58.0,30.14,SW,227,2.0,10.0,100,-99.99,,,-99.99,,2013-07-03 15:57:00,
2013-07-03 12:07:00,58.0,58.0,30.14,SW,227,2.0,10.0,100,-99.99,,,-99.99,,2013-07-03 16:07:00,
2013-07-03 12:17:00,59.0,59.0,30.13,SSW,206,5.0,10.0,100,-99.99,,,-99.99,,2013-07-03 16:17:00,
2013-07-03 12:39:00,59.0,59.0,30.14,SSW,204,6.0,11.0,100,-99.99,,,-99.99,,2013-07-03 16:39:00,
2013-07-03 12:46:00,60.0,60.0,30.13,SSW,196,5.0,10.0,100,-99.99,,,-99.99,,2013-07-03 16:46:00,
2013-07-03 13:17:00,60.0,60.0,30.13,SW,217,4.0,11.0,100,0.00,,,-99.99,,2013-07-03 17:17:00,
2013-07-03 13:26:00,59.0,59.0,30.13,SSW,208,6.0,12.0,100,-99.99,,,-99.99,,2013-07-03 17:26:00,
2013-07-03 13:40:00,59.0,59.0,30.13,SSW,208,6.0,12.0,100,-99.99,,,-99.99,,2013-07-03 17:40:00,
2013-07-03 13:56:00,60.0,60.0,30.12,SW,234,9.0,14.0,100,-99.99,,,-99.99,,2013-07-03 17:56:00,
2013-07-03 14:08:00,60.0,60.0,30.12,SW,234,9.0,14.0,100,-99.99,,,-99.99,,2013-07-03 18:08:00,
2013-07-03 14:16:00,60.0,60.0,30.12,SSW,195,9.0,16.0,100,-99.99,,,-99.99,,2013-07-03 18:16:00,
2013-07-03 14:25:00,60.0,60.0,30.11,SW,216,7.0,12.0,100,0.00,,,-99.99,,2013-07-03 18:25:00,
2013-07-03 14:37:00,60.0,60.0,30.11,SW,225,9.0,15.0,100,0.00,,,-99.99,,2013-07-03 18:37:00,
2013-07-03 14:46:00,60.0,60.0,30.11,SW,225,9.0,15.0,100,0.00,,,-99.99,,2013-07-03 18:46:00,
2013-07-03 14:59:00,61.0,61.0,30.11,SW,215,7.0,13.0,100,0.00,,,-99.99,,2013-07-03 18:59:00,
2013-07-03 16:26:00,60.0,60.0,30.09,SSW,212,8.0,13.0,100,0.00,,,-99.99,,2013-07-03 20:26:00,
2013-07-03 17:36:00,60.0,60.0,30.07,SW,219,4.0,12.0,100,0.00,,,-99.99,,2013-07-03 21:36:00,
2013-07-03 18:16:00,59.0,59.0,30.08,WSW,243,6.0,14.0,100,0.00,,,-99.99,,2013-07-03 22:16:00,
2013-07-03 18:38:00,58.0,58.0,30.08,SSW,200,3.0,7.0,100,0.00,,,-99.99,,2013-07-03 22:38:00,
2013-07-03 18:46:00,58.0,58.0,30.08,SSW,200,3.0,7.0,100,0.00,,,-99.99,,2013-07-03 22:46:00,
2013-07-03 19:06:00,58.0,58.0,30.07,SW,215,11.0,16.0,100,0.00,,,-99.99,,2013-07-03 23:06:00,
2013-07-03 19:14:00,58.0,58.0,30.07,SW,215,11.0,16.0,100,0.00,,,-99.99,,2013-07-03 23:14:00,
2013-07-03 19:25:00,58.0,58.0,30.07,WSW,257,9.0,16.0,100,0.00,,,-99.99,,2013-07-03 23:25:00,
2013-07-03 19:40:00,58.0,58.0,30.07,SW,235,2.0,10.0,100,0.00,,,-99.99,,2013-07-03 23:40:00,
2013-07-03 19:45:00,58.0,58.0,30.07,SW,235,2.0,10.0,100,0.00,,,-99.99,,2013-07-03 23:45:00,
2013-07-03 19:56:00,59.0,59.0,30.07,SW,235,4.0,6.0,100,0.00,,,-99.99,,2013-07-03 23:56:00,
2013-07-03 20:17:00,58.0,58.0,30.06,SW,234,6.0,7.0,100,0.00,,,-99.99,,2013-07-04 00:17:00,
2013-07-03 20:26:00,58.0,58.0,30.07,SW,234,3.0,6.0,100,0.00,,,-99.99,,2013-07-04 00:26:00,
2013-07-03 20:37:00,57.0,57.0,30.06,SW,215,3.0,9.0,100,0.00,,,-99.99,,2013-07-04 00:37:00,
2013-07-03 20:49:00,57.0,57.0,30.06,SW,215,3.0,9.0,100,0.00,,,-99.99,,2013-07-04 00:49:00,
2013-07-03 21:16:00,58.0,58.0,30.08,SW,225,3.0,7.0,100,0.00,,,-99.99,,2013-07-04 01:16:00,
2013-07-03 21:38:00,57.0,57.0,30.08,SW,227,1.0,7.0,100,-99.99,,,-99.99,,2013-07-04 01:38:00,
2013-07-03 21:44:00,57.0,57.0,30.08,SW,227,1.0,7.0,100,-99.99,,,-99.99,,2013-07-04 01:44:00,
2013-07-03 22:08:00,57.0,57.0,30.08,SW,227,3.0,7.0,100,-99.99,,,-99.99,,2013-07-04 02:08:00,
2013-07-03 22:15:00,58.0,58.0,30.08,SW,227,3.0,6.0,100,-99.99,,,-99.99,,2013-07-04 02:15:00,
2013-07-03 22:24:00,58.0,58.0,30.08,WSW,237,6.0,13.0,100,-99.99,,,-99.99,,2013-07-04 02:24:00,
2013-07-03 22:49:00,59.0,59.0,30.08,WSW,253,8.0,14.0,100,0.00,,,-99.99,,2013-07-04 02:49:00,
2013-07-03 22:57:00,59.0,59.0,30.07,WSW,241,8.0,13.0,100,0.00,,,-99.99,,2013-07-04 02:57:00,
2013-07-03 23:05:00,59.0,59.0,30.07,WSW,242,3.0,10.0,100,0.00,,,-99.99,,2013-07-04 03:05:00,
2013-07-03 23:15:00,59.0,59.0,30.07,WSW,242,3.0,10.0,100,0.00,,,-99.99,,2013-07-04 03:15:00,
2013-07-03 23:36:00,60.0,60.0,30.07,SW,233,7.0,13.0,100,0.00,,,-99.99,,2013-07-04 03:36:00,
2013-07-03 23:46:00,61.0,61.0,30.07,SW,223,4.0,10.0,100,0.00,,,-99.99,,2013-07-04 03:46:00,
2013-07-03 23:57:00,61.0,61.0,30.06,SW,230,4.0,10.0,100,0.00,,,-99.99,,2013-07-04 03:57:00,